KJYO

Leesburg Executive Airport

Leesburg, Virginia, USA
METAR KJYO 231015Z AUTO 10003KT 3SM BR OVC004 03/03 A3059 RMK AO2
Observed Flight Rules
Feb-23 @ 10:15 UTC (18 minutes ago) Instrument Flight Rules
Wind Visibility Clouds Conditions
100° at 3 knots 3 miles
  • Overcast at 400' AGL
  • Mist
Temperatures Readings
Current 3°C / 37°F
Dewpoint 3°C / 37°F
Humidity 100%
Altimeter 30.59" Hg
Pressure 1036 hPa
Elevation 119
METAR KJYO 231015Z AUTO 10003KT 3SM BR OVC004 03/03 A3059 RMK AO2
Observed Flight Rules
Feb-23 @ 10:15 UTC
(18 minutes ago)
LIFR
Wind Visibility
100° at 3 knots 3 miles
Clouds
  • Overcast at 400' AGL
Conditions
  • Mist
Temperature Dewpoint
3°C / 37°F 3°C / 37°F
Humidity Altimeter Pressure
100% 30.59" Hg 1036 hPa